KSQL/SQL METAR and TAF weather

Enter ICAO airport designator
Station Type Date Time Source
KSQL METAR 2020/09/20 10:55 UTC NOAA

KSQL 201055Z AUTO 00000KT 10SM SCT039 17/13 A2989 RMK AO2


Station Type Date Time Source
KSQL Decoded METAR 2020/09/20 10:55 UTC NOAA

San Carlos Airport, CA, United States (KSQL) 37-31N 122-15W
Sep 20, 2020 - 06:55 AM EDT / 2020.09.20 1055 UTC
Wind: Calm:0
Visibility: 10 mile(s):0
Sky conditions: partly cloudy
Temperature: 62 F (17 C)
Dew Point: 55 F (13 C)
Relative Humidity: 77%
Pressure (altimeter): 29.89 in. Hg (1012 hPa)
ob: KSQL 201055Z AUTO 00000KT 10SM SCT039 17/13 A2989 RMK AO2
cycle: 11

Station Type Date Time Source
KSQL TAF UTC NOAA

Error!

Example: see airport list